sensor_id;sensor_type;location;lat;lon;timestamp;temperature;humidity
22558;DHT22;11445;53.816;8.902;2024-01-11T00:01:45;-0.70;99.90
22558;DHT22;11445;53.816;8.902;2024-01-11T00:04:13;-0.70;99.90
22558;DHT22;11445;53.816;8.902;2024-01-11T00:06:41;-0.70;99.90
22558;DHT22;11445;53.816;8.902;2024-01-11T00:09:08;-0.70;99.90
22558;DHT22;11445;53.816;8.902;2024-01-11T00:11:35;-0.70;99.90
22558;DHT22;11445;53.816;8.902;2024-01-11T00:14:02;-0.70;99.90
22558;DHT22;11445;53.816;8.902;2024-01-11T00:16:29;-0.60;99.90
22558;DHT22;11445;53.816;8.902;2024-01-11T00:18:56;-0.60;99.90
22558;DHT22;11445;53.816;8.902;2024-01-11T00:21:24;-0.60;99.90
22558;DHT22;11445;53.816;8.902;2024-01-11T00:23:51;-0.60;99.90
22558;DHT22;11445;53.816;8.902;2024-01-11T00:26:18;-0.60;99.90
22558;DHT22;11445;53.816;8.902;2024-01-11T00:28:45;-0.60;99.90
22558;DHT22;11445;53.816;8.902;2024-01-11T00:31:12;-0.70;99.90
22558;DHT22;11445;53.816;8.902;2024-01-11T00:33:39;-0.60;99.90
22558;DHT22;11445;53.816;8.902;2024-01-11T00:36:06;-0.60;99.90
22558;DHT22;11445;53.816;8.902;2024-01-11T00:38:34;-0.60;99.90
22558;DHT22;11445;53.816;8.902;2024-01-11T00:41:01;-0.60;99.90
22558;DHT22;11445;53.816;8.902;2024-01-11T00:43:28;-0.60;99.90
22558;DHT22;11445;53.816;8.902;2024-01-11T00:45:55;-0.60;99.90
22558;DHT22;11445;53.816;8.902;2024-01-11T00:48:22;-0.60;99.90
22558;DHT22;11445;53.816;8.902;2024-01-11T00:50:48;-0.60;99.90
22558;DHT22;11445;53.816;8.902;2024-01-11T00:53:15;-0.60;99.90
22558;DHT22;11445;53.816;8.902;2024-01-11T00:55:43;-0.60;99.90
22558;DHT22;11445;53.816;8.902;2024-01-11T00:58:10;-0.60;99.90
22558;DHT22;11445;53.816;8.902;2024-01-11T01:00:37;-0.60;99.90
22558;DHT22;11445;53.816;8.902;2024-01-11T01:03:04;-0.60;99.90
22558;DHT22;11445;53.816;8.902;2024-01-11T01:05:31;-0.60;99.90
22558;DHT22;11445;53.816;8.902;2024-01-11T01:07:57;-0.60;99.90
22558;DHT22;11445;53.816;8.902;2024-01-11T01:10:24;-0.60;99.90
22558;DHT22;11445;53.816;8.902;2024-01-11T01:12:52;-0.60;99.90
22558;DHT22;11445;53.816;8.902;2024-01-11T01:15:19;-0.60;99.90
22558;DHT22;11445;53.816;8.902;2024-01-11T01:17:46;-0.60;99.90
22558;DHT22;11445;53.816;8.902;2024-01-11T01:20:13;-0.60;99.90
22558;DHT22;11445;53.816;8.902;2024-01-11T01:22:40;-0.60;99.90
22558;DHT22;11445;53.816;8.902;2024-01-11T01:25:07;-0.60;99.90
22558;DHT22;11445;53.816;8.902;2024-01-11T01:27:34;-0.60;99.90
22558;DHT22;11445;53.816;8.902;2024-01-11T01:30:03;-0.60;99.90
22558;DHT22;11445;53.816;8.902;2024-01-11T01:32:29;-0.60;99.90
22558;DHT22;11445;53.816;8.902;2024-01-11T01:34:57;-0.60;99.90
22558;DHT22;11445;53.816;8.902;2024-01-11T01:37:23;-0.60;99.90
22558;DHT22;11445;53.816;8.902;2024-01-11T01:39:51;-0.50;99.90
22558;DHT22;11445;53.816;8.902;2024-01-11T01:42:18;-0.50;99.90
22558;DHT22;11445;53.816;8.902;2024-01-11T01:44:44;-0.50;99.90
22558;DHT22;11445;53.816;8.902;2024-01-11T01:47:13;-0.50;99.90
22558;DHT22;11445;53.816;8.902;2024-01-11T01:49:40;-0.50;99.90
22558;DHT22;11445;53.816;8.902;2024-01-11T01:52:07;-0.50;99.90
22558;DHT22;11445;53.816;8.902;2024-01-11T01:54:34;-0.50;99.90
22558;DHT22;11445;53.816;8.902;2024-01-11T01:57:02;-0.50;99.90
22558;DHT22;11445;53.816;8.902;2024-01-11T01:59:31;-0.50;99.90
22558;DHT22;11445;53.816;8.902;2024-01-11T02:01:58;-0.50;99.90
22558;DHT22;11445;53.816;8.902;2024-01-11T02:04:27;-0.60;99.90
22558;DHT22;11445;53.816;8.902;2024-01-11T02:06:54;-0.60;99.90
22558;DHT22;11445;53.816;8.902;2024-01-11T02:09:22;-0.60;99.90
22558;DHT22;11445;53.816;8.902;2024-01-11T02:11:51;-0.60;99.90
22558;DHT22;11445;53.816;8.902;2024-01-11T02:14:19;-0.60;99.90
22558;DHT22;11445;53.816;8.902;2024-01-11T02:16:46;-0.50;99.90
22558;DHT22;11445;53.816;8.902;2024-01-11T02:19:13;-0.50;99.90
22558;DHT22;11445;53.816;8.902;2024-01-11T02:21:42;-0.50;99.90
22558;DHT22;11445;53.816;8.902;2024-01-11T02:24:10;-0.50;99.90
22558;DHT22;11445;53.816;8.902;2024-01-11T02:26:57;-0.50;99.90
22558;DHT22;11445;53.816;8.902;2024-01-11T02:29:25;-0.40;99.90
22558;DHT22;11445;53.816;8.902;2024-01-11T02:31:52;-0.40;99.90
22558;DHT22;11445;53.816;8.902;2024-01-11T02:34:19;-0.40;99.90
22558;DHT22;11445;53.816;8.902;2024-01-11T02:36:46;-0.30;99.90
22558;DHT22;11445;53.816;8.902;2024-01-11T02:39:16;-0.20;99.90
22558;DHT22;11445;53.816;8.902;2024-01-11T02:41:44;-0.20;99.90
22558;DHT22;11445;53.816;8.902;2024-01-11T02:44:10;-0.20;99.90
22558;DHT22;11445;53.816;8.902;2024-01-11T02:46:38;-0.20;99.90
22558;DHT22;11445;53.816;8.902;2024-01-11T02:49:04;-0.10;99.90
22558;DHT22;11445;53.816;8.902;2024-01-11T02:51:31;-0.10;99.90
22558;DHT22;11445;53.816;8.902;2024-01-11T02:53:58;-0.10;99.90
22558;DHT22;11445;53.816;8.902;2024-01-11T02:56:27;0.00;99.90
22558;DHT22;11445;53.816;8.902;2024-01-11T02:58:53;-0.10;99.90
22558;DHT22;11445;53.816;8.902;2024-01-11T03:01:20;0.00;99.90
22558;DHT22;11445;53.816;8.902;2024-01-11T03:03:47;0.00;99.90
22558;DHT22;11445;53.816;8.902;2024-01-11T03:06:14;0.00;99.90
22558;DHT22;11445;53.816;8.902;2024-01-11T03:08:40;0.00;99.90
22558;DHT22;11445;53.816;8.902;2024-01-11T03:11:06;0.20;99.90
22558;DHT22;11445;53.816;8.902;2024-01-11T03:13:35;0.10;99.90
22558;DHT22;11445;53.816;8.902;2024-01-11T03:16:02;0.10;99.90
22558;DHT22;11445;53.816;8.902;2024-01-11T03:18:29;0.10;99.90
22558;DHT22;11445;53.816;8.902;2024-01-11T03:20:56;0.00;99.90
22558;DHT22;11445;53.816;8.902;2024-01-11T03:23:23;0.00;99.90
22558;DHT22;11445;53.816;8.902;2024-01-11T03:25:50;0.00;99.90
22558;DHT22;11445;53.816;8.902;2024-01-11T03:28:17;-0.10;99.90
22558;DHT22;11445;53.816;8.902;2024-01-11T03:30:45;-0.10;99.90
22558;DHT22;11445;53.816;8.902;2024-01-11T03:33:12;-0.10;99.90
22558;DHT22;11445;53.816;8.902;2024-01-11T03:35:39;0.00;99.90
22558;DHT22;11445;53.816;8.902;2024-01-11T03:38:06;0.00;99.90
22558;DHT22;11445;53.816;8.902;2024-01-11T03:40:33;0.00;99.90
22558;DHT22;11445;53.816;8.902;2024-01-11T03:42:59;0.00;99.90
22558;DHT22;11445;53.816;8.902;2024-01-11T03:45:26;0.00;99.90
22558;DHT22;11445;53.816;8.902;2024-01-11T03:47:54;0.00;99.90
22558;DHT22;11445;53.816;8.902;2024-01-11T03:50:21;0.10;99.90
22558;DHT22;11445;53.816;8.902;2024-01-11T03:52:48;0.00;99.90
22558;DHT22;11445;53.816;8.902;2024-01-11T03:55:15;0.00;99.90
22558;DHT22;11445;53.816;8.902;2024-01-11T03:57:42;0.00;99.90
22558;DHT22;11445;53.816;8.902;2024-01-11T04:00:10;0.00;99.90
22558;DHT22;11445;53.816;8.902;2024-01-11T04:02:37;0.10;99.90
22558;DHT22;11445;53.816;8.902;2024-01-11T04:05:06;0.10;99.90
22558;DHT22;11445;53.816;8.902;2024-01-11T04:07:33;0.10;99.90
22558;DHT22;11445;53.816;8.902;2024-01-11T04:10:00;0.10;99.90
22558;DHT22;11445;53.816;8.902;2024-01-11T04:12:27;0.10;99.90
22558;DHT22;11445;53.816;8.902;2024-01-11T04:14:53;0.10;99.90
22558;DHT22;11445;53.816;8.902;2024-01-11T04:17:20;0.10;99.90
22558;DHT22;11445;53.816;8.902;2024-01-11T04:19:47;0.20;99.90
22558;DHT22;11445;53.816;8.902;2024-01-11T04:22:15;0.20;99.90
22558;DHT22;11445;53.816;8.902;2024-01-11T04:24:43;0.20;99.90
22558;DHT22;11445;53.816;8.902;2024-01-11T04:27:10;0.20;99.90
22558;DHT22;11445;53.816;8.902;2024-01-11T04:29:37;0.20;99.90
22558;DHT22;11445;53.816;8.902;2024-01-11T04:32:04;0.20;99.90
22558;DHT22;11445;53.816;8.902;2024-01-11T04:34:31;0.20;99.90
22558;DHT22;11445;53.816;8.902;2024-01-11T04:36:57;0.30;99.90
22558;DHT22;11445;53.816;8.902;2024-01-11T04:39:26;0.20;99.90
22558;DHT22;11445;53.816;8.902;2024-01-11T04:41:52;0.30;99.90
22558;DHT22;11445;53.816;8.902;2024-01-11T04:44:19;0.30;99.90
22558;DHT22;11445;53.816;8.902;2024-01-11T04:46:46;0.30;99.90
22558;DHT22;11445;53.816;8.902;2024-01-11T04:49:13;0.30;99.90
22558;DHT22;11445;53.816;8.902;2024-01-11T04:51:40;0.30;99.90
22558;DHT22;11445;53.816;8.902;2024-01-11T04:54:06;0.30;99.90
22558;DHT22;11445;53.816;8.902;2024-01-11T04:56:35;0.40;99.90
22558;DHT22;11445;53.816;8.902;2024-01-11T04:59:02;0.40;99.90
22558;DHT22;11445;53.816;8.902;2024-01-11T05:01:29;0.40;99.90
22558;DHT22;11445;53.816;8.902;2024-01-11T05:03:55;0.40;99.90
22558;DHT22;11445;53.816;8.902;2024-01-11T05:06:22;0.40;99.90
22558;DHT22;11445;53.816;8.902;2024-01-11T05:08:51;0.40;99.90
22558;DHT22;11445;53.816;8.902;2024-01-11T05:11:19;0.40;99.90
22558;DHT22;11445;53.816;8.902;2024-01-11T05:13:47;0.40;99.90
22558;DHT22;11445;53.816;8.902;2024-01-11T05:16:19;0.30;99.90
22558;DHT22;11445;53.816;8.902;2024-01-11T05:18:46;0.30;99.90
22558;DHT22;11445;53.816;8.902;2024-01-11T05:21:13;0.30;99.90
22558;DHT22;11445;53.816;8.902;2024-01-11T05:23:40;0.30;99.90
22558;DHT22;11445;53.816;8.902;2024-01-11T05:26:07;0.30;99.90
22558;DHT22;11445;53.816;8.902;2024-01-11T05:28:34;0.30;99.90
22558;DHT22;11445;53.816;8.902;2024-01-11T05:31:03;0.30;99.90
22558;DHT22;11445;53.816;8.902;2024-01-11T05:33:30;0.30;99.90
22558;DHT22;11445;53.816;8.902;2024-01-11T05:35:57;0.30;99.90
22558;DHT22;11445;53.816;8.902;2024-01-11T05:38:24;0.30;99.90
22558;DHT22;11445;53.816;8.902;2024-01-11T05:40:51;0.30;99.90
22558;DHT22;11445;53.816;8.902;2024-01-11T05:43:18;0.30;99.90
22558;DHT22;11445;53.816;8.902;2024-01-11T05:45:44;0.40;99.90
22558;DHT22;11445;53.816;8.902;2024-01-11T05:48:12;0.30;99.90
22558;DHT22;11445;53.816;8.902;2024-01-11T05:50:39;0.40;99.90
22558;DHT22;11445;53.816;8.902;2024-01-11T05:53:06;0.40;99.90
22558;DHT22;11445;53.816;8.902;2024-01-11T05:55:33;0.40;99.90
22558;DHT22;11445;53.816;8.902;2024-01-11T05:58:00;0.40;99.90
22558;DHT22;11445;53.816;8.902;2024-01-11T06:00:27;0.40;99.90
22558;DHT22;11445;53.816;8.902;2024-01-11T06:02:54;0.40;99.90
22558;DHT22;11445;53.816;8.902;2024-01-11T06:05:22;0.40;99.90
22558;DHT22;11445;53.816;8.902;2024-01-11T06:07:49;0.40;99.90
22558;DHT22;11445;53.816;8.902;2024-01-11T06:10:16;0.40;99.90
22558;DHT22;11445;53.816;8.902;2024-01-11T06:12:43;0.40;99.90
22558;DHT22;11445;53.816;8.902;2024-01-11T06:15:10;0.40;99.90
22558;DHT22;11445;53.816;8.902;2024-01-11T06:17:37;0.40;99.90
22558;DHT22;11445;53.816;8.902;2024-01-11T06:20:04;0.50;99.90
22558;DHT22;11445;53.816;8.902;2024-01-11T06:22:33;0.50;99.90
22558;DHT22;11445;53.816;8.902;2024-01-11T06:25:00;0.50;99.90
22558;DHT22;11445;53.816;8.902;2024-01-11T06:27:26;0.50;99.90
22558;DHT22;11445;53.816;8.902;2024-01-11T06:29:53;0.50;99.90
22558;DHT22;11445;53.816;8.902;2024-01-11T06:32:20;0.50;99.90
22558;DHT22;11445;53.816;8.902;2024-01-11T06:34:47;0.50;99.90
22558;DHT22;11445;53.816;8.902;2024-01-11T06:37:14;0.50;99.90
22558;DHT22;11445;53.816;8.902;2024-01-11T06:39:42;0.50;99.90
22558;DHT22;11445;53.816;8.902;2024-01-11T06:42:09;0.50;99.90
22558;DHT22;11445;53.816;8.902;2024-01-11T06:44:35;0.50;99.90
22558;DHT22;11445;53.816;8.902;2024-01-11T06:47:02;0.60;99.90
22558;DHT22;11445;53.816;8.902;2024-01-11T06:49:31;0.60;99.90
22558;DHT22;11445;53.816;8.902;2024-01-11T06:51:58;0.60;99.90
22558;DHT22;11445;53.816;8.902;2024-01-11T06:54:24;0.60;99.90
22558;DHT22;11445;53.816;8.902;2024-01-11T06:56:53;0.60;99.90
22558;DHT22;11445;53.816;8.902;2024-01-11T06:59:19;0.60;99.90
22558;DHT22;11445;53.816;8.902;2024-01-11T07:01:46;0.60;99.90
22558;DHT22;11445;53.816;8.902;2024-01-11T07:04:13;0.60;99.90
22558;DHT22;11445;53.816;8.902;2024-01-11T07:06:40;0.60;99.90
22558;DHT22;11445;53.816;8.902;2024-01-11T07:09:07;0.60;99.90
22558;DHT22;11445;53.816;8.902;2024-01-11T07:11:36;0.60;99.90
22558;DHT22;11445;53.816;8.902;2024-01-11T07:14:04;0.60;99.90
22558;DHT22;11445;53.816;8.902;2024-01-11T07:16:31;0.60;99.90
22558;DHT22;11445;53.816;8.902;2024-01-11T07:18:58;0.60;99.90
22558;DHT22;11445;53.816;8.902;2024-01-11T07:21:25;0.60;99.90
22558;DHT22;11445;53.816;8.902;2024-01-11T07:23:55;0.50;99.90
22558;DHT22;11445;53.816;8.902;2024-01-11T07:26:23;0.50;99.90
22558;DHT22;11445;53.816;8.902;2024-01-11T07:28:50;0.50;99.90
22558;DHT22;11445;53.816;8.902;2024-01-11T07:31:18;0.50;99.90
22558;DHT22;11445;53.816;8.902;2024-01-11T07:33:45;0.60;99.90
22558;DHT22;11445;53.816;8.902;2024-01-11T07:36:12;0.60;99.90
22558;DHT22;11445;53.816;8.902;2024-01-11T07:38:39;0.60;99.90
22558;DHT22;11445;53.816;8.902;2024-01-11T07:41:06;0.60;99.90
22558;DHT22;11445;53.816;8.902;2024-01-11T07:43:33;0.60;99.90
22558;DHT22;11445;53.816;8.902;2024-01-11T07:46:01;0.60;99.90
22558;DHT22;11445;53.816;8.902;2024-01-11T07:48:30;0.60;99.90
22558;DHT22;11445;53.816;8.902;2024-01-11T07:50:58;0.60;99.90
22558;DHT22;11445;53.816;8.902;2024-01-11T07:53:25;0.60;99.90
22558;DHT22;11445;53.816;8.902;2024-01-11T07:55:52;0.60;99.90
22558;DHT22;11445;53.816;8.902;2024-01-11T07:58:19;0.70;99.90
22558;DHT22;11445;53.816;8.902;2024-01-11T08:00:47;0.70;99.90
22558;DHT22;11445;53.816;8.902;2024-01-11T08:03:14;0.70;99.90
22558;DHT22;11445;53.816;8.902;2024-01-11T08:05:42;0.70;99.90
22558;DHT22;11445;53.816;8.902;2024-01-11T08:08:09;0.70;99.90
22558;DHT22;11445;53.816;8.902;2024-01-11T08:10:36;0.80;99.90
22558;DHT22;11445;53.816;8.902;2024-01-11T08:13:03;0.70;99.90
22558;DHT22;11445;53.816;8.902;2024-01-11T08:15:30;0.80;99.90
22558;DHT22;11445;53.816;8.902;2024-01-11T08:17:57;0.80;99.90
22558;DHT22;11445;53.816;8.902;2024-01-11T08:20:25;0.80;99.90
22558;DHT22;11445;53.816;8.902;2024-01-11T08:22:54;0.80;99.90
22558;DHT22;11445;53.816;8.902;2024-01-11T08:25:22;0.80;99.90
22558;DHT22;11445;53.816;8.902;2024-01-11T08:27:49;0.80;99.90
22558;DHT22;11445;53.816;8.902;2024-01-11T08:30:16;0.80;99.90
22558;DHT22;11445;53.816;8.902;2024-01-11T08:32:42;0.80;99.90
22558;DHT22;11445;53.816;8.902;2024-01-11T08:35:11;0.90;99.90
22558;DHT22;11445;53.816;8.902;2024-01-11T08:37:38;0.90;99.90
22558;DHT22;11445;53.816;8.902;2024-01-11T08:40:07;0.90;99.90
22558;DHT22;11445;53.816;8.902;2024-01-11T08:42:34;0.90;99.90
22558;DHT22;11445;53.816;8.902;2024-01-11T08:45:01;0.90;99.90
22558;DHT22;11445;53.816;8.902;2024-01-11T08:47:32;0.90;99.90
22558;DHT22;11445;53.816;8.902;2024-01-11T08:50:00;0.90;99.90
22558;DHT22;11445;53.816;8.902;2024-01-11T08:52:26;0.90;99.90
22558;DHT22;11445;53.816;8.902;2024-01-11T08:54:53;0.80;99.90
22558;DHT22;11445;53.816;8.902;2024-01-11T08:57:21;0.80;99.90
22558;DHT22;11445;53.816;8.902;2024-01-11T08:59:48;0.80;99.90
22558;DHT22;11445;53.816;8.902;2024-01-11T09:02:15;0.80;99.90
22558;DHT22;11445;53.816;8.902;2024-01-11T09:04:42;0.80;99.90
22558;DHT22;11445;53.816;8.902;2024-01-11T09:07:09;0.80;99.90
22558;DHT22;11445;53.816;8.902;2024-01-11T09:09:35;0.80;99.90
22558;DHT22;11445;53.816;8.902;2024-01-11T09:12:03;0.80;99.90
22558;DHT22;11445;53.816;8.902;2024-01-11T09:14:31;0.80;99.90
22558;DHT22;11445;53.816;8.902;2024-01-11T09:16:58;0.80;99.90
22558;DHT22;11445;53.816;8.902;2024-01-11T09:19:25;0.80;99.90
22558;DHT22;11445;53.816;8.902;2024-01-11T09:21:51;0.80;99.90
22558;DHT22;11445;53.816;8.902;2024-01-11T09:24:19;0.80;99.90
22558;DHT22;11445;53.816;8.902;2024-01-11T09:26:45;0.80;99.90
22558;DHT22;11445;53.816;8.902;2024-01-11T09:29:15;0.80;99.90
22558;DHT22;11445;53.816;8.902;2024-01-11T09:31:43;0.80;99.90
22558;DHT22;11445;53.816;8.902;2024-01-11T09:34:10;0.90;99.90
22558;DHT22;11445;53.816;8.902;2024-01-11T09:36:38;0.90;99.90
22558;DHT22;11445;53.816;8.902;2024-01-11T09:39:05;0.90;99.90
22558;DHT22;11445;53.816;8.902;2024-01-11T09:41:35;0.90;99.90
22558;DHT22;11445;53.816;8.902;2024-01-11T09:44:05;0.90;99.90
22558;DHT22;11445;53.816;8.902;2024-01-11T09:46:32;1.00;99.90
22558;DHT22;11445;53.816;8.902;2024-01-11T09:49:00;1.00;99.90
22558;DHT22;11445;53.816;8.902;2024-01-11T09:51:29;1.00;99.90
22558;DHT22;11445;53.816;8.902;2024-01-11T09:53:58;1.00;99.90
22558;DHT22;11445;53.816;8.902;2024-01-11T09:56:26;1.10;99.90
22558;DHT22;11445;53.816;8.902;2024-01-11T09:58:54;1.10;99.90
22558;DHT22;11445;53.816;8.902;2024-01-11T10:01:20;1.10;99.90
22558;DHT22;11445;53.816;8.902;2024-01-11T10:03:48;1.10;99.90
22558;DHT22;11445;53.816;8.902;2024-01-11T10:06:17;1.20;99.90
22558;DHT22;11445;53.816;8.902;2024-01-11T10:08:45;1.10;99.90
22558;DHT22;11445;53.816;8.902;2024-01-11T10:11:12;1.20;99.90
22558;DHT22;11445;53.816;8.902;2024-01-11T10:13:38;1.20;99.90
22558;DHT22;11445;53.816;8.902;2024-01-11T10:16:06;1.20;99.90
22558;DHT22;11445;53.816;8.902;2024-01-11T10:18:35;1.20;99.90
22558;DHT22;11445;53.816;8.902;2024-01-11T10:21:02;1.30;99.90
22558;DHT22;11445;53.816;8.902;2024-01-11T10:23:33;1.30;99.90
22558;DHT22;11445;53.816;8.902;2024-01-11T10:26:00;1.30;99.90
22558;DHT22;11445;53.816;8.902;2024-01-11T10:28:27;1.30;99.90
22558;DHT22;11445;53.816;8.902;2024-01-11T10:30:55;1.40;99.90
22558;DHT22;11445;53.816;8.902;2024-01-11T10:33:22;1.30;99.90
22558;DHT22;11445;53.816;8.902;2024-01-11T10:35:49;1.40;99.90
22558;DHT22;11445;53.816;8.902;2024-01-11T10:38:17;1.40;99.90
22558;DHT22;11445;53.816;8.902;2024-01-11T10:40:46;1.40;99.90
22558;DHT22;11445;53.816;8.902;2024-01-11T10:43:17;1.50;99.90
22558;DHT22;11445;53.816;8.902;2024-01-11T10:45:45;1.50;99.90
22558;DHT22;11445;53.816;8.902;2024-01-11T10:48:15;1.60;99.90
22558;DHT22;11445;53.816;8.902;2024-01-11T10:50:43;1.60;99.90
22558;DHT22;11445;53.816;8.902;2024-01-11T10:53:20;1.60;99.90
22558;DHT22;11445;53.816;8.902;2024-01-11T10:55:50;1.70;99.90
22558;DHT22;11445;53.816;8.902;2024-01-11T10:58:18;1.70;99.90
22558;DHT22;11445;53.816;8.902;2024-01-11T11:00:46;1.70;99.90
22558;DHT22;11445;53.816;8.902;2024-01-11T11:03:14;1.70;99.90
22558;DHT22;11445;53.816;8.902;2024-01-11T11:05:43;1.80;99.90
22558;DHT22;11445;53.816;8.902;2024-01-11T11:08:10;1.80;99.90
22558;DHT22;11445;53.816;8.902;2024-01-11T11:10:39;1.80;99.90
22558;DHT22;11445;53.816;8.902;2024-01-11T11:13:08;1.80;99.90
22558;DHT22;11445;53.816;8.902;2024-01-11T11:15:36;1.80;99.90
22558;DHT22;11445;53.816;8.902;2024-01-11T11:18:04;1.90;99.90
22558;DHT22;11445;53.816;8.902;2024-01-11T11:20:32;1.90;99.90
22558;DHT22;11445;53.816;8.902;2024-01-11T11:23:07;2.00;99.90
22558;DHT22;11445;53.816;8.902;2024-01-11T11:25:35;2.10;99.90
22558;DHT22;11445;53.816;8.902;2024-01-11T11:28:02;2.30;99.90
22558;DHT22;11445;53.816;8.902;2024-01-11T11:30:31;2.40;99.90
22558;DHT22;11445;53.816;8.902;2024-01-11T11:33:07;2.60;99.90
22558;DHT22;11445;53.816;8.902;2024-01-11T11:35:35;2.70;99.90
22558;DHT22;11445;53.816;8.902;2024-01-11T11:38:04;2.70;99.90
22558;DHT22;11445;53.816;8.902;2024-01-11T11:40:37;2.80;99.90
22558;DHT22;11445;53.816;8.902;2024-01-11T11:43:05;2.80;99.90
22558;DHT22;11445;53.816;8.902;2024-01-11T11:45:34;2.90;99.90
22558;DHT22;11445;53.816;8.902;2024-01-11T11:48:01;3.00;99.90
22558;DHT22;11445;53.816;8.902;2024-01-11T11:50:30;3.00;99.90
22558;DHT22;11445;53.816;8.902;2024-01-11T11:52:57;3.00;99.90
22558;DHT22;11445;53.816;8.902;2024-01-11T11:55:25;3.10;99.90
22558;DHT22;11445;53.816;8.902;2024-01-11T11:57:52;3.10;99.90
22558;DHT22;11445;53.816;8.902;2024-01-11T12:00:19;3.10;99.90
22558;DHT22;11445;53.816;8.902;2024-01-11T12:02:48;3.20;99.90
22558;DHT22;11445;53.816;8.902;2024-01-11T12:05:16;3.20;99.90
22558;DHT22;11445;53.816;8.902;2024-01-11T12:07:44;3.20;99.90
22558;DHT22;11445;53.816;8.902;2024-01-11T12:10:11;3.20;99.90
22558;DHT22;11445;53.816;8.902;2024-01-11T12:12:38;3.20;99.90
22558;DHT22;11445;53.816;8.902;2024-01-11T12:15:07;3.20;99.90
22558;DHT22;11445;53.816;8.902;2024-01-11T12:17:34;3.20;99.90
22558;DHT22;11445;53.816;8.902;2024-01-11T12:20:03;3.20;99.90
22558;DHT22;11445;53.816;8.902;2024-01-11T12:22:30;3.30;99.90
22558;DHT22;11445;53.816;8.902;2024-01-11T12:24:57;3.30;99.90
22558;DHT22;11445;53.816;8.902;2024-01-11T12:27:24;3.30;99.90
22558;DHT22;11445;53.816;8.902;2024-01-11T12:29:50;3.30;99.90
22558;DHT22;11445;53.816;8.902;2024-01-11T12:32:17;3.30;99.90
22558;DHT22;11445;53.816;8.902;2024-01-11T12:34:44;3.30;99.90
22558;DHT22;11445;53.816;8.902;2024-01-11T12:37:14;3.30;99.90
22558;DHT22;11445;53.816;8.902;2024-01-11T12:39:41;3.30;99.90
22558;DHT22;11445;53.816;8.902;2024-01-11T12:42:08;3.30;99.90
22558;DHT22;11445;53.816;8.902;2024-01-11T12:44:36;3.50;99.90
22558;DHT22;11445;53.816;8.902;2024-01-11T12:47:05;3.50;99.90
22558;DHT22;11445;53.816;8.902;2024-01-11T12:49:34;3.50;99.90
22558;DHT22;11445;53.816;8.902;2024-01-11T12:52:00;3.50;99.90
22558;DHT22;11445;53.816;8.902;2024-01-11T12:54:32;3.50;99.90
22558;DHT22;11445;53.816;8.902;2024-01-11T12:57:00;3.50;99.90
22558;DHT22;11445;53.816;8.902;2024-01-11T12:59:28;3.50;99.90
22558;DHT22;11445;53.816;8.902;2024-01-11T13:01:55;3.50;99.90
22558;DHT22;11445;53.816;8.902;2024-01-11T13:04:23;3.50;99.90
22558;DHT22;11445;53.816;8.902;2024-01-11T13:06:50;3.50;99.90
22558;DHT22;11445;53.816;8.902;2024-01-11T13:09:16;3.50;99.90
22558;DHT22;11445;53.816;8.902;2024-01-11T13:11:45;3.40;99.90
22558;DHT22;11445;53.816;8.902;2024-01-11T13:14:11;3.40;99.90
22558;DHT22;11445;53.816;8.902;2024-01-11T13:16:44;3.40;99.90
22558;DHT22;11445;53.816;8.902;2024-01-11T13:19:11;3.30;99.90
22558;DHT22;11445;53.816;8.902;2024-01-11T13:21:38;3.40;99.90
22558;DHT22;11445;53.816;8.902;2024-01-11T13:24:06;3.40;99.90
22558;DHT22;11445;53.816;8.902;2024-01-11T13:26:34;3.40;99.90
22558;DHT22;11445;53.816;8.902;2024-01-11T13:29:03;3.40;99.90
22558;DHT22;11445;53.816;8.902;2024-01-11T13:31:30;3.40;99.90
22558;DHT22;11445;53.816;8.902;2024-01-11T13:33:57;3.40;99.90
22558;DHT22;11445;53.816;8.902;2024-01-11T13:36:24;3.40;99.90
22558;DHT22;11445;53.816;8.902;2024-01-11T13:38:51;3.50;99.90
22558;DHT22;11445;53.816;8.902;2024-01-11T13:41:18;3.50;99.90
22558;DHT22;11445;53.816;8.902;2024-01-11T13:43:45;3.50;99.90
22558;DHT22;11445;53.816;8.902;2024-01-11T13:46:15;3.40;99.90
22558;DHT22;11445;53.816;8.902;2024-01-11T13:48:45;3.40;99.90
22558;DHT22;11445;53.816;8.902;2024-01-11T13:51:12;3.40;99.90
22558;DHT22;11445;53.816;8.902;2024-01-11T13:53:40;3.30;99.90
22558;DHT22;11445;53.816;8.902;2024-01-11T13:56:07;3.30;99.90
22558;DHT22;11445;53.816;8.902;2024-01-11T13:58:34;3.30;99.90
22558;DHT22;11445;53.816;8.902;2024-01-11T14:01:01;3.30;99.90
22558;DHT22;11445;53.816;8.902;2024-01-11T14:03:29;3.30;99.90
22558;DHT22;11445;53.816;8.902;2024-01-11T14:05:56;3.30;99.90
22558;DHT22;11445;53.816;8.902;2024-01-11T14:08:24;3.20;99.90
22558;DHT22;11445;53.816;8.902;2024-01-11T14:10:51;3.20;99.90
22558;DHT22;11445;53.816;8.902;2024-01-11T14:13:18;3.10;99.90
22558;DHT22;11445;53.816;8.902;2024-01-11T14:15:45;3.10;99.90
22558;DHT22;11445;53.816;8.902;2024-01-11T14:18:13;3.00;99.90
22558;DHT22;11445;53.816;8.902;2024-01-11T14:20:41;3.00;99.90
22558;DHT22;11445;53.816;8.902;2024-01-11T14:23:08;2.90;99.90
22558;DHT22;11445;53.816;8.902;2024-01-11T14:25:35;2.90;99.90
22558;DHT22;11445;53.816;8.902;2024-01-11T14:28:02;2.90;99.90
22558;DHT22;11445;53.816;8.902;2024-01-11T14:30:29;2.80;99.90
22558;DHT22;11445;53.816;8.902;2024-01-11T14:32:56;2.80;99.90
22558;DHT22;11445;53.816;8.902;2024-01-11T14:35:23;2.80;99.90
22558;DHT22;11445;53.816;8.902;2024-01-11T14:37:51;2.80;99.90
22558;DHT22;11445;53.816;8.902;2024-01-11T14:40:18;2.70;99.90
22558;DHT22;11445;53.816;8.902;2024-01-11T14:42:45;2.80;99.90
22558;DHT22;11445;53.816;8.902;2024-01-11T14:45:12;2.80;99.90
22558;DHT22;11445;53.816;8.902;2024-01-11T14:47:39;2.80;99.90
22558;DHT22;11445;53.816;8.902;2024-01-11T14:50:07;2.70;99.90
22558;DHT22;11445;53.816;8.902;2024-01-11T14:52:35;2.70;99.90
22558;DHT22;11445;53.816;8.902;2024-01-11T14:55:03;2.70;99.90
22558;DHT22;11445;53.816;8.902;2024-01-11T14:57:31;2.60;99.90
22558;DHT22;11445;53.816;8.902;2024-01-11T14:59:58;2.60;99.90
22558;DHT22;11445;53.816;8.902;2024-01-11T15:02:24;2.50;99.90
22558;DHT22;11445;53.816;8.902;2024-01-11T15:04:51;2.50;99.90
22558;DHT22;11445;53.816;8.902;2024-01-11T15:07:18;2.40;99.90
22558;DHT22;11445;53.816;8.902;2024-01-11T15:09:45;2.40;99.90
22558;DHT22;11445;53.816;8.902;2024-01-11T15:12:15;2.40;99.90
22558;DHT22;11445;53.816;8.902;2024-01-11T15:14:42;2.40;99.90
22558;DHT22;11445;53.816;8.902;2024-01-11T15:17:09;2.40;99.90
22558;DHT22;11445;53.816;8.902;2024-01-11T15:19:36;2.30;99.90
22558;DHT22;11445;53.816;8.902;2024-01-11T15:22:03;2.40;99.90
22558;DHT22;11445;53.816;8.902;2024-01-11T15:24:33;2.30;99.90
22558;DHT22;11445;53.816;8.902;2024-01-11T15:27:00;2.30;99.90
22558;DHT22;11445;53.816;8.902;2024-01-11T15:29:29;2.30;99.90
22558;DHT22;11445;53.816;8.902;2024-01-11T15:31:56;2.20;99.90
22558;DHT22;11445;53.816;8.902;2024-01-11T15:34:22;2.20;99.90
22558;DHT22;11445;53.816;8.902;2024-01-11T15:36:49;2.10;99.90
22558;DHT22;11445;53.816;8.902;2024-01-11T15:39:16;2.10;99.90
22558;DHT22;11445;53.816;8.902;2024-01-11T15:41:45;2.00;99.90
22558;DHT22;11445;53.816;8.902;2024-01-11T15:44:13;1.90;99.90